Terminal Aerodrome Forecast
Issued by NWS

Home | Current Version | Previous Version | Text Only | Print | Product List | Glossary On
Versions: 1 2 3 4 5 6 7 8 9 10 11 12 13 14 15 16 17 18 19 20 21 22 23 24 25 26 27 28 29
000
FTUS45 KBOU 181837 AAA
TAFAPA
TAF AMD
KAPA 181837Z 1819/1918 26014G24KT P6SM FEW080 SCT150
     FM190100 17011KT P6SM SCT120 BKN200
     FM190500 12008KT P6SM FEW080 BKN160
     FM190900 03012KT P6SM FEW025 SCT050 BKN120
     FM191100 05012G18KT 3SM BR BKN006 OVC015
      TEMPO 1911/1915 1SM -FZDZ BR VV004
     FM191500 11014KT 2SM -FZDZ BR BKN003 OVC007=

USA.gov is the U.S. government's official web portal to all federal, state and local government web resources and services.